Time;durP1;ratioP1;P1;durP2;ratioP2;P2;SDS_P1;SDS_P2;PMS_P1;PMS_P2;Temp;Humidity;BMP_temperature;BMP_pressure;BME280_temperature;BME280_humidity;BME280_pressure;Samples;Min_cycle;Max_cycle;Signal;HPM_P1;HPM_P2
2022/06/29 00:01:46;;;;;;;1.83;1.73;;;21.70;79.60;;;;;;5050768;28;20548;-69
2022/06/29 00:04:12;;;;;;;2.60;2.30;;;21.70;79.90;;;;;;5049365;28;20230;-68
2022/06/29 00:06:38;;;;;;;1.50;1.40;;;21.70;80.00;;;;;;5049519;28;20207;-69
2022/06/29 00:09:04;;;;;;;1.97;1.77;;;21.60;79.40;;;;;;5033032;28;20687;-68
2022/06/29 00:11:30;;;;;;;3.47;1.70;;;21.60;80.20;;;;;;5044909;28;20299;-69
2022/06/29 00:13:56;;;;;;;1.70;1.60;;;21.60;80.00;;;;;;5028634;28;20581;-68
2022/06/29 00:16:21;;;;;;;2.07;1.90;;;21.60;79.80;;;;;;5047713;28;20227;-68
2022/06/29 00:18:47;;;;;;;1.73;1.63;;;21.60;79.80;;;;;;5046754;28;20216;-69
2022/06/29 00:21:13;;;;;;;2.30;1.50;;;21.60;79.60;;;;;;5046240;28;20697;-69
2022/06/29 00:23:39;;;;;;;1.63;1.53;;;21.60;79.60;;;;;;5048564;28;20238;-69
2022/06/29 00:26:04;;;;;;;1.70;1.60;;;21.60;80.00;;;;;;5049070;28;20253;-68
2022/06/29 00:28:30;;;;;;;1.90;1.80;;;21.60;81.10;;;;;;5031839;28;20228;-69
2022/06/29 00:30:56;;;;;;;1.70;1.60;;;21.60;80.20;;;;;;5050557;28;20212;-68
2022/06/29 00:33:21;;;;;;;1.63;1.53;;;21.60;80.40;;;;;;5048025;28;20273;-69
2022/06/29 00:35:48;;;;;;;2.20;2.03;;;21.60;80.20;;;;;;5032191;28;20216;-68
2022/06/29 00:38:14;;;;;;;1.70;1.60;;;21.60;80.00;;;;;;5029109;28;20311;-68
2022/06/29 00:40:40;;;;;;;2.10;1.87;;;21.60;80.20;;;;;;5040871;28;20478;-69
2022/06/29 00:43:05;;;;;;;1.67;1.57;;;21.60;80.30;;;;;;5048314;28;20958;-69
2022/06/29 00:45:31;;;;;;;2.00;1.90;;;21.50;80.00;;;;;;5048610;28;20519;-69
2022/06/29 00:47:57;;;;;;;1.93;1.83;;;21.60;80.10;;;;;;5048440;28;20219;-69
2022/06/29 00:50:29;;;;;;;1.50;1.40;;;21.50;80.10;;;;;;5048828;28;20239;-68
2022/06/29 00:53:01;;;;;;;1.67;1.57;;;21.50;80.60;;;;;;5043601;28;20227;-68
2022/06/29 00:55:30;;;;;;;2.83;1.83;;;21.50;80.40;;;;;;5046835;28;20466;-68
2022/06/29 00:58:00;;;;;;;1.77;1.67;;;21.50;81.10;;;;;;5032331;28;20461;-67
2022/06/29 01:00:26;;;;;;;2.13;2.03;;;21.50;81.00;;;;;;5047603;28;20454;-69
2022/06/29 01:02:52;;;;;;;2.13;2.03;;;21.50;81.00;;;;;;5062875;28;20485;-69
2022/06/29 01:05:18;;;;;;;1.93;1.83;;;21.50;80.70;;;;;;5032103;28;20455;-67
2022/06/29 01:07:44;;;;;;;3.00;1.80;;;21.50;81.00;;;;;;5047204;28;20277;-69
2022/06/29 01:10:10;;;;;;;1.87;1.77;;;21.50;80.80;;;;;;5045371;28;20664;-69
2022/06/29 01:12:36;;;;;;;4.57;2.23;;;21.40;81.00;;;;;;5036189;28;20502;-69
2022/06/29 01:15:02;;;;;;;1.90;1.70;;;21.40;81.30;;;;;;5046009;28;20208;-69
2022/06/29 01:17:27;;;;;;;3.80;1.73;;;21.40;82.00;;;;;;5023946;28;20576;-68
2022/06/29 01:19:53;;;;;;;2.37;2.27;;;21.40;81.40;;;;;;5046805;28;20273;-68
2022/06/29 01:22:21;;;;;;;2.37;2.10;;;21.40;81.40;;;;;;5044373;28;20226;-68
2022/06/29 01:24:48;;;;;;;1.90;1.77;;;21.30;81.60;;;;;;5048428;28;20560;-68
2022/06/29 01:27:15;;;;;;;1.77;1.67;;;21.30;81.90;;;;;;5048677;28;20476;-68
2022/06/29 01:29:42;;;;;;;1.90;1.80;;;21.30;81.60;;;;;;5027715;28;20954;-68
2022/06/29 01:32:08;;;;;;;9.93;2.33;;;21.30;81.40;;;;;;5045422;28;21127;-68
2022/06/29 01:34:35;;;;;;;1.93;1.83;;;21.30;81.90;;;;;;5047548;28;20538;-68
2022/06/29 01:37:01;;;;;;;2.00;1.80;;;21.20;81.80;;;;;;5046115;28;20250;-68
2022/06/29 01:39:28;;;;;;;5.03;1.93;;;21.30;82.00;;;;;;5039105;28;20462;-69
2022/06/29 01:41:54;;;;;;;2.50;2.33;;;21.20;81.70;;;;;;5048310;28;20442;-69
2022/06/29 01:44:20;;;;;;;2.20;2.00;;;21.20;82.00;;;;;;5043753;28;20451;-69
2022/06/29 01:46:46;;;;;;;8.50;2.10;;;21.30;82.10;;;;;;5048528;28;20448;-68
2022/06/29 01:49:12;;;;;;;1.90;1.80;;;21.30;82.00;;;;;;5048059;28;20438;-68
2022/06/29 01:51:38;;;;;;;1.90;1.80;;;21.30;82.70;;;;;;5048089;28;20311;-68
2022/06/29 01:54:04;;;;;;;2.00;1.90;;;21.20;81.90;;;;;;5046019;28;20549;-68
2022/06/29 01:56:30;;;;;;;2.40;2.20;;;21.20;82.20;;;;;;5046475;28;20216;-68
2022/06/29 01:58:55;;;;;;;2.17;1.90;;;21.20;82.50;;;;;;5051244;28;20707;-68
2022/06/29 02:01:21;;;;;;;2.50;1.83;;;21.20;82.50;;;;;;5051283;28;20297;-69
2022/06/29 02:03:47;;;;;;;1.90;1.80;;;21.20;82.60;;;;;;5050889;28;20718;-69
2022/06/29 02:06:13;;;;;;;2.00;1.80;;;21.20;83.30;;;;;;5060103;28;20284;-68
2022/06/29 02:08:38;;;;;;;3.07;1.93;;;21.20;82.80;;;;;;5051800;28;20220;-69
2022/06/29 02:11:04;;;;;;;2.40;2.20;;;21.20;82.90;;;;;;5048324;28;20224;-69
2022/06/29 02:13:30;;;;;;;2.63;2.30;;;21.20;83.20;;;;;;5060992;28;20216;-68
2022/06/29 02:15:56;;;;;;;1.90;1.80;;;21.10;83.00;;;;;;5048804;28;20493;-69
2022/06/29 02:18:22;;;;;;;5.53;2.30;;;21.10;83.20;;;;;;5033752;28;20315;-68
2022/06/29 02:20:48;;;;;;;2.90;1.90;;;21.20;83.60;;;;;;5064669;28;20680;-68
2022/06/29 02:23:13;;;;;;;1.93;1.83;;;21.10;83.20;;;;;;5050928;28;20588;-69
2022/06/29 02:25:39;;;;;;;1.80;1.63;;;21.20;83.40;;;;;;5050548;28;20223;-68
2022/06/29 02:28:05;;;;;;;2.00;1.90;;;21.20;83.60;;;;;;5050463;28;20611;-69
2022/06/29 02:36:00;;;;;;;2.10;2.00;;;21.10;83.90;;;;;;5052487;28;20973;-68
2022/06/29 02:38:26;;;;;;;2.57;2.37;;;21.10;84.20;;;;;;5042175;28;20451;-68
2022/06/29 02:40:51;;;;;;;2.17;2.07;;;21.10;84.30;;;;;;5052556;28;20231;-69
2022/06/29 02:43:17;;;;;;;2.50;2.30;;;21.10;84.40;;;;;;5034283;28;20283;-68
2022/06/29 02:45:43;;;;;;;7.23;2.57;;;21.10;84.30;;;;;;5050848;28;20738;-68
2022/06/29 02:48:09;;;;;;;2.40;2.20;;;21.10;84.30;;;;;;5063220;28;20298;-68
2022/06/29 02:50:34;;;;;;;2.37;2.17;;;21.10;84.10;;;;;;5050856;28;20652;-68
2022/06/29 02:53:01;;;;;;;2.53;2.13;;;21.10;84.40;;;;;;5051060;28;20318;-69
2022/06/29 02:55:26;;;;;;;2.00;1.90;;;21.10;84.90;;;;;;5049208;28;20229;-68
2022/06/29 02:57:52;;;;;;;2.03;1.87;;;21.10;85.20;;;;;;5030627;28;20462;-68
2022/06/29 03:00:18;;;;;;;1.70;1.60;;;21.10;84.90;;;;;;5048352;28;20224;-69
2022/06/29 03:02:44;;;;;;;2.47;2.27;;;21.10;85.10;;;;;;5030063;28;20220;-68
2022/06/29 03:05:10;;;;;;;1.60;1.50;;;21.10;85.10;;;;;;5047512;28;20270;-69
2022/06/29 03:07:35;;;;;;;2.50;2.30;;;21.10;85.20;;;;;;5049918;28;20238;-68
2022/06/29 03:10:01;;;;;;;3.30;1.97;;;21.10;84.90;;;;;;5047483;28;20591;-68
2022/06/29 03:12:27;;;;;;;2.47;1.80;;;21.10;85.30;;;;;;5029734;28;20235;-68
2022/06/29 03:14:53;;;;;;;1.93;1.83;;;21.10;85.50;;;;;;5047110;28;20215;-69
2022/06/29 03:17:19;;;;;;;2.60;1.90;;;21.10;85.40;;;;;;5050214;28;21042;-69
2022/06/29 03:19:44;;;;;;;3.60;2.30;;;21.10;85.80;;;;;;5049618;28;20227;-68
2022/06/29 03:22:10;;;;;;;2.87;1.93;;;21.10;85.50;;;;;;5050100;28;20216;-69
2022/06/29 03:24:36;;;;;;;2.40;2.30;;;21.10;86.30;;;;;;5044491;28;20204;-69
2022/06/29 03:27:02;;;;;;;2.37;2.17;;;21.00;85.50;;;;;;5051867;28;20298;-69
2022/06/29 03:29:27;;;;;;;2.60;2.40;;;21.00;85.50;;;;;;5033524;28;20224;-69
2022/06/29 03:31:53;;;;;;;2.40;2.20;;;21.00;85.90;;;;;;5021515;28;20278;-69
2022/06/29 03:34:19;;;;;;;4.10;2.53;;;21.00;85.80;;;;;;5047438;28;20223;-68
2022/06/29 03:36:44;;;;;;;2.37;2.17;;;21.00;85.50;;;;;;5032146;28;20725;-68
2022/06/29 03:39:10;;;;;;;2.80;2.30;;;21.00;85.60;;;;;;5032200;28;20631;-69
2022/06/29 03:41:36;;;;;;;2.83;2.63;;;21.00;85.50;;;;;;5031710;28;20577;-68
2022/06/29 03:44:02;;;;;;;2.70;2.50;;;21.00;85.60;;;;;;5050709;28;20223;-69
2022/06/29 03:46:28;;;;;;;3.97;2.03;;;21.00;85.80;;;;;;5049314;28;20250;-68
2022/06/29 03:48:54;;;;;;;2.70;2.50;;;21.00;86.00;;;;;;5050589;28;20985;-68
2022/06/29 03:51:19;;;;;;;2.80;2.50;;;21.00;85.90;;;;;;5049678;28;20230;-69
2022/06/29 03:53:45;;;;;;;2.73;2.53;;;21.00;86.20;;;;;;5048453;28;20258;-69
2022/06/29 03:56:11;;;;;;;2.70;2.50;;;21.00;86.20;;;;;;5048619;28;20224;-68
2022/06/29 03:58:37;;;;;;;2.60;2.40;;;21.00;86.40;;;;;;5032468;28;20220;-68
2022/06/29 04:01:03;;;;;;;2.60;2.40;;;21.00;86.50;;;;;;5041415;28;20227;-68
2022/06/29 04:03:29;;;;;;;2.80;2.60;;;21.00;86.80;;;;;;5031110;28;20537;-68
2022/06/29 04:05:55;;;;;;;2.33;2.20;;;21.00;86.90;;;;;;5050755;28;20882;-69
2022/06/29 04:08:21;;;;;;;2.73;2.53;;;21.00;86.40;;;;;;5050144;28;20219;-69
2022/06/29 04:10:47;;;;;;;4.47;2.47;;;21.00;86.80;;;;;;5050679;28;20484;-68
2022/06/29 04:13:13;;;;;;;2.00;1.90;;;21.00;86.80;;;;;;5050056;28;20259;-68
2022/06/29 04:15:39;;;;;;;2.30;2.10;;;21.00;86.80;;;;;;5048422;28;20220;-69
2022/06/29 04:18:05;;;;;;;2.27;2.07;;;21.00;87.00;;;;;;5049608;28;20461;-68
2022/06/29 04:23:15;;;;;;;4.27;2.80;;;21.00;87.10;;;;;;5049763;28;20219;-68
2022/06/29 04:25:41;;;;;;;3.90;2.70;;;21.00;87.00;;;;;;5049335;28;20531;-69
2022/06/29 04:28:06;;;;;;;2.67;2.50;;;20.90;87.30;;;;;;5049544;28;20228;-68
2022/06/29 04:30:33;;;;;;;3.07;2.87;;;20.90;87.80;;;;;;5032270;28;20216;-68
2022/06/29 04:32:59;;;;;;;3.37;2.57;;;20.90;88.00;;;;;;5050051;28;20224;-68
2022/06/29 04:35:24;;;;;;;2.60;2.43;;;20.90;88.20;;;;;;5049361;28;20576;-68
2022/06/29 04:37:50;;;;;;;2.40;2.30;;;20.90;88.70;;;;;;5032697;28;20223;-68
2022/06/29 04:40:16;;;;;;;2.63;2.30;;;20.80;88.40;;;;;;5049833;28;20227;-68
2022/06/29 04:42:42;;;;;;;4.67;3.23;;;20.80;88.70;;;;;;5052702;28;20718;-68
2022/06/29 04:46:19;;;;;;;2.80;2.60;;;20.80;88.60;;;;;;5053187;28;20519;-69
2022/06/29 04:47:54;;;;;;;2.60;2.40;;;20.80;88.50;;;;;;5051751;28;20354;-68
2022/06/29 04:50:19;;;;;;;2.93;2.73;;;20.80;88.90;;;;;;5038330;28;20536;-69
2022/06/29 04:52:45;;;;;;;2.70;2.50;;;20.80;88.70;;;;;;5056912;28;20361;-68
2022/06/29 04:55:11;;;;;;;2.83;2.63;;;20.90;88.50;;;;;;5048345;28;20222;-68
2022/06/29 04:57:36;;;;;;;2.90;2.70;;;20.90;88.30;;;;;;5035705;28;20566;-70
2022/06/29 05:00:03;;;;;;;2.70;2.50;;;20.90;88.60;;;;;;5031861;28;20269;-69
2022/06/29 05:02:28;;;;;;;2.97;2.77;;;20.90;88.30;;;;;;5052368;28;20219;-68
2022/06/29 05:04:54;;;;;;;2.80;2.60;;;20.80;88.50;;;;;;5048951;28;20446;-69
2022/06/29 05:07:20;;;;;;;3.70;3.40;;;20.80;88.40;;;;;;5047346;28;20218;-69
2022/06/29 05:09:45;;;;;;;3.43;3.13;;;20.90;88.50;;;;;;5050285;28;20270;-69
2022/06/29 05:12:11;;;;;;;2.87;2.67;;;20.90;88.60;;;;;;5047206;28;20208;-69
2022/06/29 05:14:37;;;;;;;3.27;3.07;;;20.90;88.70;;;;;;5030986;28;20220;-68
2022/06/29 05:17:03;;;;;;;3.53;2.93;;;20.90;89.00;;;;;;5046997;28;20224;-68
2022/06/29 05:19:28;;;;;;;3.57;3.27;;;20.90;89.00;;;;;;5047975;28;20231;-67
2022/06/29 05:21:54;;;;;;;3.50;3.20;;;20.90;89.20;;;;;;5045175;28;20738;-67
2022/06/29 05:24:20;;;;;;;3.80;3.50;;;20.80;89.50;;;;;;5025851;28;20307;-68
2022/06/29 05:26:46;;;;;;;3.30;3.00;;;20.80;89.40;;;;;;5048063;28;20620;-68
2022/06/29 05:29:12;;;;;;;3.30;3.10;;;20.80;90.00;;;;;;5014715;28;20569;-70
2022/06/29 05:31:37;;;;;;;3.27;2.93;;;20.80;90.10;;;;;;5044113;28;20578;-67
2022/06/29 05:34:03;;;;;;;7.20;3.57;;;20.90;90.00;;;;;;5041068;28;20782;-68
2022/06/29 05:36:29;;;;;;;3.37;3.17;;;20.90;90.10;;;;;;5051192;28;20227;-69
2022/06/29 05:38:54;;;;;;;4.50;4.20;;;20.90;90.10;;;;;;5052855;28;20216;-69
2022/06/29 05:41:20;;;;;;;2.67;2.47;;;20.90;90.40;;;;;;5046563;28;20219;-69
2022/06/29 05:43:49;;;;;;;5.93;2.40;;;20.90;90.50;;;;;;5047171;28;20228;-69
2022/06/29 05:46:15;;;;;;;3.17;2.97;;;20.90;90.50;;;;;;5047485;28;20211;-68
2022/06/29 05:48:41;;;;;;;3.00;2.80;;;20.90;90.80;;;;;;5050564;28;20530;-69
2022/06/29 05:51:07;;;;;;;2.90;2.70;;;20.90;91.10;;;;;;5032788;28;20530;-70
2022/06/29 05:53:32;;;;;;;3.00;2.70;;;20.90;90.80;;;;;;5032169;28;20221;-69
2022/06/29 05:55:58;;;;;;;2.87;2.67;;;20.90;90.90;;;;;;5047258;28;20619;-70
2022/06/29 05:58:24;;;;;;;2.83;2.63;;;20.90;90.70;;;;;;5043396;28;20311;-69
2022/06/29 06:00:50;;;;;;;3.67;3.37;;;20.90;90.90;;;;;;5047845;28;20266;-69
2022/06/29 06:03:17;;;;;;;2.80;2.60;;;21.00;91.00;;;;;;5057525;28;20703;-69
2022/06/29 06:05:43;;;;;;;3.20;3.00;;;21.00;90.90;;;;;;5048932;28;20223;-69
2022/06/29 06:08:09;;;;;;;4.83;3.17;;;21.00;90.90;;;;;;5042938;28;20521;-69
2022/06/29 06:10:35;;;;;;;4.10;2.83;;;21.00;90.90;;;;;;5045543;28;20475;-68
2022/06/29 06:13:02;;;;;;;2.93;2.73;;;21.00;91.10;;;;;;5045964;28;20464;-70
2022/06/29 06:15:28;;;;;;;3.40;3.20;;;21.00;91.00;;;;;;5048188;28;20604;-69
2022/06/29 06:17:54;;;;;;;3.50;3.20;;;21.00;91.00;;;;;;5042139;28;21005;-69
2022/06/29 06:20:20;;;;;;;3.80;3.50;;;21.00;91.20;;;;;;5045841;28;20231;-69
2022/06/29 06:22:46;;;;;;;3.17;2.97;;;21.10;91.30;;;;;;5050180;28;20461;-69
2022/06/29 06:25:11;;;;;;;3.60;3.30;;;21.10;91.20;;;;;;5030066;28;20645;-69
2022/06/29 06:27:37;;;;;;;3.80;3.47;;;21.10;91.30;;;;;;5049235;28;20739;-68
2022/06/29 06:30:03;;;;;;;3.80;3.37;;;21.10;91.40;;;;;;5058988;28;20227;-68
2022/06/29 06:32:29;;;;;;;2.77;2.57;;;21.10;91.50;;;;;;5044769;28;20225;-69
2022/06/29 06:34:54;;;;;;;3.93;3.63;;;21.20;91.40;;;;;;5036910;28;20450;-69
2022/06/29 06:37:20;;;;;;;3.40;3.10;;;21.20;91.60;;;;;;5036718;28;20224;-69
2022/06/29 06:41:21;;;;;;;3.20;3.00;;;21.20;91.90;;;;;;5042523;28;20255;-70
2022/06/29 06:42:31;;;;;;;3.77;3.50;;;21.30;91.60;;;;;;5041683;28;20298;-69
2022/06/29 06:45:02;;;;;;;3.10;2.90;;;21.30;91.90;;;;;;5042359;28;20445;-70
2022/06/29 06:47:27;;;;;;;3.40;3.20;;;21.30;92.00;;;;;;5060039;28;20450;-68
2022/06/29 06:49:53;;;;;;;3.70;3.10;;;21.30;91.90;;;;;;5047605;28;20244;-68
2022/06/29 06:52:19;;;;;;;4.17;3.20;;;21.40;91.90;;;;;;5039361;28;20238;-69
2022/06/29 06:54:44;;;;;;;4.27;3.30;;;21.40;92.40;;;;;;5045691;28;20223;-69
2022/06/29 06:57:11;;;;;;;3.70;3.40;;;21.50;92.30;;;;;;5043594;28;20323;-69
2022/06/29 06:59:38;;;;;;;4.10;3.70;;;21.50;92.30;;;;;;5041043;28;20216;-68
2022/06/29 07:02:04;;;;;;;4.00;3.57;;;21.50;92.40;;;;;;5043046;28;20455;-68
2022/06/29 07:04:29;;;;;;;4.10;3.70;;;21.60;92.40;;;;;;5035043;28;20562;-69
2022/06/29 07:06:55;;;;;;;4.30;4.00;;;21.60;92.50;;;;;;5044010;28;20525;-69
2022/06/29 07:09:21;;;;;;;3.90;3.60;;;21.70;92.80;;;;;;5044879;28;20706;-69
2022/06/29 07:11:46;;;;;;;4.20;3.80;;;21.80;92.70;;;;;;5046730;28;20220;-69
2022/06/29 07:14:12;;;;;;;4.53;4.17;;;21.80;92.70;;;;;;5040516;28;20628;-69
2022/06/29 07:16:38;;;;;;;5.67;4.60;;;21.90;92.80;;;;;;5043618;28;20288;-69
2022/06/29 07:19:04;;;;;;;4.37;4.07;;;22.00;92.80;;;;;;5039643;28;20303;-69
2022/06/29 07:21:29;;;;;;;7.10;4.80;;;22.10;92.80;;;;;;5026818;28;20251;-69
2022/06/29 07:23:58;;;;;;;4.80;4.40;;;22.20;92.60;;;;;;5039823;28;20278;-69
2022/06/29 07:26:25;;;;;;;4.60;4.30;;;22.20;92.40;;;;;;5051940;28;20258;-69
2022/06/29 07:28:51;;;;;;;7.20;4.23;;;22.20;92.30;;;;;;5042232;28;20528;-69
2022/06/29 07:31:16;;;;;;;5.17;4.77;;;22.30;92.50;;;;;;5044556;28;20462;-69
2022/06/29 07:33:42;;;;;;;4.50;4.10;;;22.30;92.50;;;;;;5041966;28;20231;-69
2022/06/29 07:36:08;;;;;;;5.43;4.93;;;22.40;92.50;;;;;;5045644;28;20226;-69
2022/06/29 07:38:34;;;;;;;5.53;5.13;;;22.50;92.60;;;;;;5043515;28;20695;-68
2022/06/29 07:41:01;;;;;;;5.50;5.00;;;22.60;92.50;;;;;;5040904;28;20216;-69
2022/06/29 07:43:27;;;;;;;5.37;4.80;;;22.60;92.40;;;;;;5027673;28;20517;-69
2022/06/29 07:45:54;;;;;;;5.03;4.63;;;22.70;92.40;;;;;;5029488;28;20554;-69
2022/06/29 07:48:20;;;;;;;5.07;4.57;;;22.70;92.50;;;;;;5048814;28;20497;-69
2022/06/29 07:50:46;;;;;;;5.30;4.80;;;22.80;92.50;;;;;;5047590;28;20478;-69
2022/06/29 07:53:12;;;;;;;8.43;4.70;;;22.90;92.40;;;;;;5048599;28;20715;-68
2022/06/29 07:55:37;;;;;;;5.37;4.83;;;22.90;92.20;;;;;;5048484;28;20216;-69
2022/06/29 07:58:03;;;;;;;4.93;4.43;;;22.90;92.10;;;;;;5049167;28;20243;-68
2022/06/29 08:00:29;;;;;;;5.47;4.97;;;23.00;92.30;;;;;;5030968;28;20279;-69
2022/06/29 08:02:54;;;;;;;5.77;5.30;;;23.00;92.20;;;;;;5032210;28;20231;-69
2022/06/29 08:05:20;;;;;;;5.63;5.17;;;23.00;91.90;;;;;;5020699;28;20250;-68
2022/06/29 08:07:47;;;;;;;5.40;4.97;;;23.10;92.20;;;;;;5047076;28;20600;-69
2022/06/29 08:10:13;;;;;;;5.10;4.70;;;23.20;92.20;;;;;;5046256;28;20223;-69
2022/06/29 08:12:38;;;;;;;9.23;4.80;;;23.20;92.20;;;;;;5046910;28;20461;-68
2022/06/29 08:15:05;;;;;;;4.93;4.50;;;23.30;92.30;;;;;;5037582;28;20458;-69
2022/06/29 08:17:31;;;;;;;5.60;5.17;;;23.30;92.30;;;;;;5043004;28;20254;-69
2022/06/29 08:19:57;;;;;;;5.43;4.97;;;23.40;92.40;;;;;;5040404;28;20983;-69
2022/06/29 08:22:23;;;;;;;5.70;5.10;;;23.50;92.40;;;;;;5027431;28;20454;-69
2022/06/29 08:24:48;;;;;;;4.90;4.60;;;23.60;92.40;;;;;;5036243;28;20240;-69
2022/06/29 08:27:14;;;;;;;4.83;4.43;;;23.70;92.40;;;;;;5041276;28;20277;-69
2022/06/29 08:29:40;;;;;;;5.07;4.43;;;23.70;92.50;;;;;;5043312;28;20277;-70
2022/06/29 08:32:06;;;;;;;5.07;4.67;;;23.80;92.50;;;;;;5036230;28;20273;-69
2022/06/29 08:34:38;;;;;;;7.97;4.93;;;23.90;92.40;;;;;;5028552;28;20219;-69
2022/06/29 08:37:04;;;;;;;5.00;4.60;;;23.90;92.50;;;;;;5051340;28;20537;-70
2022/06/29 08:39:29;;;;;;;4.67;4.37;;;24.10;92.70;;;;;;5046791;28;20513;-69
2022/06/29 08:41:59;;;;;;;5.00;4.60;;;24.20;92.70;;;;;;5044541;28;20226;-70
2022/06/29 08:44:25;;;;;;;4.90;4.40;;;24.20;92.30;;;;;;5059230;28;20661;-70
2022/06/29 08:46:51;;;;;;;5.90;5.50;;;24.20;92.40;;;;;;5047137;28;20996;-69
2022/06/29 08:49:17;;;;;;;6.60;5.47;;;24.20;92.50;;;;;;5043214;28;20696;-69
2022/06/29 08:51:45;;;;;;;5.07;4.67;;;24.30;92.60;;;;;;5041594;28;20284;-69
2022/06/29 08:54:14;;;;;;;5.40;5.00;;;24.40;92.70;;;;;;5044374;28;20222;-69
2022/06/29 08:56:40;;;;;;;5.37;4.97;;;24.40;92.50;;;;;;5050758;28;20445;-69
2022/06/29 08:59:07;;;;;;;5.40;4.90;;;24.50;92.70;;;;;;5054094;28;20458;-69
2022/06/29 09:01:33;;;;;;;5.73;5.00;;;24.60;92.60;;;;;;5051211;28;20461;-69
2022/06/29 09:03:58;;;;;;;6.47;5.50;;;24.60;92.40;;;;;;5047166;28;20860;-70
2022/06/29 09:06:24;;;;;;;5.40;5.00;;;24.70;92.80;;;;;;5045454;28;20281;-69
2022/06/29 09:08:50;;;;;;;5.37;4.97;;;24.80;92.70;;;;;;5036841;28;20254;-69
2022/06/29 09:11:31;;;;;;;6.53;5.97;;;24.90;92.70;;;;;;5045536;28;20239;-70
2022/06/29 09:14:13;;;;;;;6.00;5.50;;;24.90;92.50;;;;;;5042118;28;20461;-68
2022/06/29 09:16:59;;;;;;;6.97;5.63;;;24.90;92.50;;;;;;5072323;28;20801;-69
2022/06/29 09:19:42;;;;;;;5.50;5.10;;;25.00;92.50;;;;;;5057033;28;20474;-70
2022/06/29 09:22:08;;;;;;;6.30;5.70;;;25.00;92.70;;;;;;5021467;28;20465;-70
2022/06/29 09:24:33;;;;;;;5.30;4.90;;;25.00;92.20;;;;;;5034215;28;20470;-69
2022/06/29 09:27:02;;;;;;;5.37;4.97;;;25.00;92.10;;;;;;5041174;28;20207;-70
2022/06/29 09:29:34;;;;;;;6.43;5.83;;;25.00;92.20;;;;;;5036395;28;20315;-69
2022/06/29 09:32:04;;;;;;;5.73;5.30;;;25.10;92.20;;;;;;5034069;28;20525;-69
2022/06/29 09:34:30;;;;;;;5.93;5.40;;;25.10;92.30;;;;;;5035470;28;20463;-69
2022/06/29 09:36:57;;;;;;;7.60;6.00;;;25.20;92.30;;;;;;5037296;28;20524;-69
2022/06/29 09:39:40;;;;;;;5.03;4.63;;;25.20;92.20;;;;;;5047582;28;20461;-69
2022/06/29 09:42:12;;;;;;;5.83;5.43;;;25.30;92.20;;;;;;5054127;28;20454;-69
2022/06/29 09:44:38;;;;;;;5.30;4.90;;;25.30;92.20;;;;;;5022556;28;21039;-69
2022/06/29 09:47:16;;;;;;;5.73;5.33;;;25.40;92.10;;;;;;5040864;28;20469;-69
2022/06/29 09:49:43;;;;;;;5.90;5.40;;;25.50;92.10;;;;;;5037906;28;20449;-69
2022/06/29 09:52:10;;;;;;;5.73;5.30;;;25.50;91.90;;;;;;5043299;28;20459;-69
2022/06/29 09:54:40;;;;;;;6.63;5.93;;;25.60;92.00;;;;;;5057632;28;20845;-69
2022/06/29 09:57:07;;;;;;;5.93;5.50;;;25.60;91.90;;;;;;5045109;28;20475;-69
2022/06/29 10:02:37;;;;;;;;;;;;;;;;;;;;;
2022/06/29 10:05:16;;;;;;;6.20;5.73;;;26.00;92.20;;;;;;5038628;28;20450;-69
2022/06/29 10:07:47;;;;;;;6.10;5.60;;;26.10;92.00;;;;;;5026808;28;20455;-69
2022/06/29 10:10:16;;;;;;;6.87;6.27;;;26.10;92.10;;;;;;5034916;28;20509;-68
2022/06/29 10:16:11;;;;;;;5.70;5.20;;;26.20;92.00;;;;;;5039998;28;20482;-69
2022/06/29 10:18:55;;;;;;;6.60;6.10;;;26.20;91.90;;;;;;5040534;28;20492;-69
2022/06/29 10:21:30;;;;;;;8.57;5.77;;;26.20;91.70;;;;;;5044220;28;20453;-70
2022/06/29 10:24:00;;;;;;;5.90;5.50;;;26.30;91.70;;;;;;5041289;28;20523;-69
2022/06/29 10:26:35;;;;;;;6.17;5.67;;;26.40;91.50;;;;;;5048120;28;20467;-70
2022/06/29 10:29:10;;;;;;;6.60;5.27;;;26.50;91.50;;;;;;5030040;28;20516;-69
2022/06/29 10:31:51;;;;;;;6.60;6.10;;;26.60;91.50;;;;;;5041177;28;20972;-69
2022/06/29 10:34:32;;;;;;;6.17;5.67;;;26.70;91.60;;;;;;5025584;28;20458;-69
2022/06/29 10:37:12;;;;;;;5.67;5.27;;;26.80;91.60;;;;;;5042121;28;20959;-70
2022/06/29 10:39:49;;;;;;;5.73;5.23;;;26.80;91.60;;;;;;5043998;28;20458;-70
2022/06/29 10:45:18;;;;;;;6.53;6.03;;;27.00;91.30;;;;;;5042312;28;20454;-69
2022/06/29 10:47:48;;;;;;;6.30;5.67;;;27.10;91.50;;;;;;5037865;28;20469;-69
2022/06/29 10:50:14;;;;;;;5.30;4.90;;;27.20;91.30;;;;;;5048794;28;21060;-70
2022/06/29 10:52:40;;;;;;;6.00;5.50;;;27.20;91.50;;;;;;5043526;28;20446;-69
2022/06/29 10:55:08;;;;;;;5.60;5.13;;;27.30;91.30;;;;;;5042881;28;20312;-70
2022/06/29 10:57:34;;;;;;;7.53;4.93;;;27.40;91.40;;;;;;5045127;28;20496;-69
2022/06/29 11:00:04;;;;;;;5.40;5.00;;;27.50;91.30;;;;;;5047293;28;20221;-69
2022/06/29 11:02:29;;;;;;;5.33;4.93;;;27.60;91.30;;;;;;5021344;28;20233;-69
2022/06/29 11:04:55;;;;;;;6.17;5.33;;;27.60;91.40;;;;;;5039164;28;20252;-69
2022/06/29 11:12:51;;;;;;;6.10;5.50;;;27.70;90.70;;;;;;5037629;28;20238;-69
2022/06/29 11:15:39;;;;;;;5.45;5.05;;;27.60;90.20;;;;;;5045574;28;20277;-69
2022/06/29 11:18:06;;;;;;;4.95;4.55;;;27.70;90.50;;;;;;5050274;28;20662;-69
2022/06/29 11:20:32;;;;;;;5.30;4.90;;;27.80;90.00;;;;;;5046548;28;20648;-70
2022/06/29 11:22:58;;;;;;;5.60;4.80;;;27.80;90.20;;;;;;5055288;28;20228;-69
2022/06/29 11:25:25;;;;;;;5.32;4.93;;;28.10;90.50;;;;;;5052023;28;20232;-68
2022/06/29 11:27:51;;;;;;;5.85;5.38;;;28.30;90.30;;;;;;5050662;28;20376;-69
2022/06/29 11:30:22;;;;;;;5.65;5.25;;;28.40;90.30;;;;;;5046934;28;20697;-69
2022/06/29 11:32:49;;;;;;;6.07;5.57;;;28.60;90.60;;;;;;5037773;28;20231;-69
2022/06/29 11:35:23;;;;;;;5.63;5.22;;;28.70;90.80;;;;;;5037537;28;20239;-69
2022/06/29 11:37:53;;;;;;;5.75;5.15;;;29.00;91.00;;;;;;5042448;28;20232;-70
2022/06/29 11:40:41;;;;;;;5.60;5.20;;;29.20;91.00;;;;;;5043315;28;20219;-69
2022/06/29 11:43:18;;;;;;;5.88;5.47;;;29.40;90.60;;;;;;5034569;28;20256;-69
2022/06/29 11:45:48;;;;;;;6.15;5.75;;;29.50;90.30;;;;;;5028328;28;20220;-69
2022/06/29 11:48:14;;;;;;;6.32;5.40;;;29.60;90.50;;;;;;5026554;28;20233;-69
2022/06/29 11:50:48;;;;;;;7.20;6.60;;;29.70;90.50;;;;;;5043405;28;20242;-70
2022/06/29 11:53:48;;;;;;;5.88;5.38;;;29.70;89.70;;;;;;5021131;28;20295;-69
2022/06/29 11:56:23;;;;;;;5.35;4.95;;;29.80;90.00;;;;;;5043607;28;20218;-69
2022/06/29 11:58:56;;;;;;;5.68;5.10;;;29.80;89.40;;;;;;5034968;28;20231;-70
2022/06/29 12:01:24;;;;;;;5.50;5.10;;;29.90;89.90;;;;;;5025973;28;20236;-69
2022/06/29 12:03:51;;;;;;;5.90;5.43;;;30.00;89.60;;;;;;5038478;28;20323;-71
2022/06/29 12:06:18;;;;;;;5.50;5.10;;;30.10;90.00;;;;;;5046038;28;20254;-69
2022/06/29 12:08:45;;;;;;;4.82;4.53;;;30.10;88.60;;;;;;5038255;28;20220;-70
2022/06/29 12:11:10;;;;;;;5.68;5.18;;;30.10;89.70;;;;;;5057417;28;20227;-70
2022/06/29 12:13:36;;;;;;;5.03;4.65;;;30.00;88.30;;;;;;5041282;28;20243;-69
2022/06/29 12:16:02;;;;;;;6.53;5.55;;;30.10;88.90;;;;;;5056448;28;20221;-69
2022/06/29 12:18:28;;;;;;;5.55;5.15;;;30.30;88.00;;;;;;5045594;28;20555;-69
2022/06/29 12:20:53;;;;;;;5.10;4.70;;;30.40;87.40;;;;;;5047338;28;20713;-69
2022/06/29 12:23:19;;;;;;;5.68;5.28;;;30.70;88.10;;;;;;5044645;28;20230;-70
2022/06/29 12:25:45;;;;;;;5.90;5.50;;;30.80;87.60;;;;;;5035138;28;20233;-70
2022/06/29 12:28:11;;;;;;;5.72;5.00;;;30.70;84.80;;;;;;5044058;28;20237;-70
2022/06/29 12:30:38;;;;;;;4.60;4.30;;;30.60;86.20;;;;;;5040343;28;20254;-69
2022/06/29 12:33:04;;;;;;;4.15;3.88;;;30.70;86.30;;;;;;5047391;28;20250;-71
2022/06/29 12:35:30;;;;;;;5.22;4.90;;;30.80;86.00;;;;;;5039071;28;20821;-70
2022/06/29 12:37:59;;;;;;;4.43;4.13;;;30.80;84.60;;;;;;5036425;28;20235;-69
2022/06/29 12:40:28;;;;;;;4.63;4.32;;;30.80;83.00;;;;;;5046523;28;20214;-70
2022/06/29 12:42:53;;;;;;;4.78;4.35;;;30.80;83.60;;;;;;5039546;28;20401;-70
2022/06/29 12:45:19;;;;;;;5.47;4.97;;;30.90;83.40;;;;;;5061125;28;20223;-70
2022/06/29 12:47:46;;;;;;;4.80;4.40;;;31.20;82.90;;;;;;5030349;28;20340;-69
2022/06/29 12:50:12;;;;;;;4.75;4.40;;;31.10;81.40;;;;;;5022728;28;20223;-69
2022/06/29 12:52:40;;;;;;;4.53;4.15;;;31.00;81.90;;;;;;5042191;28;20232;-69
2022/06/29 12:55:08;;;;;;;5.13;4.78;;;31.10;82.20;;;;;;5057587;28;20302;-70
2022/06/29 12:57:33;;;;;;;4.72;4.43;;;31.20;80.40;;;;;;5041627;28;20699;-69
2022/06/29 12:59:59;;;;;;;4.95;4.55;;;31.20;80.50;;;;;;5048981;28;20253;-70
2022/06/29 13:02:25;;;;;;;7.00;4.97;;;31.00;79.90;;;;;;5045299;28;20228;-70
2022/06/29 13:04:51;;;;;;;4.72;4.43;;;31.00;80.90;;;;;;5036933;28;20219;-69
2022/06/29 13:07:17;;;;;;;4.90;4.40;;;31.10;82.30;;;;;;5045832;28;20242;-70
2022/06/29 13:09:42;;;;;;;5.00;4.60;;;31.20;80.30;;;;;;5051420;28;20223;-69
2022/06/29 13:12:08;;;;;;;4.80;4.50;;;31.30;80.60;;;;;;5035804;28;20227;-70